createdAt,value
2019-03-19T00:02:03.167Z,101075.01
2019-03-19T00:04:33.685Z,101071.41
2019-03-19T00:07:04.240Z,101080.45
2019-03-19T00:09:34.744Z,101084.05
2019-03-19T00:12:05.269Z,101083.57
2019-03-19T00:14:35.782Z,101092.53
2019-03-19T00:17:06.338Z,101092.06
2019-03-19T00:19:37.758Z,101096.66
2019-03-19T00:22:08.309Z,101097.63
2019-03-19T00:24:38.825Z,101093.05
2019-03-19T00:27:09.370Z,101089.53
2019-03-19T00:29:39.879Z,101098.86
2019-03-19T00:32:10.431Z,101099.42
2019-03-19T00:34:42.168Z,101111.77
2019-03-19T00:37:12.721Z,101113.08
2019-03-19T00:39:43.242Z,101117.78
2019-03-19T00:42:13.778Z,101127.84
2019-03-19T00:44:44.292Z,101128.30
2019-03-19T00:47:14.848Z,101133.24
2019-03-19T00:49:45.349Z,101128.56
2019-03-19T00:52:15.912Z,101127.00
2019-03-19T00:54:46.415Z,101127.26
2019-03-19T00:57:17.875Z,101129.69
2019-03-19T00:59:48.395Z,101137.28
2019-03-19T01:02:18.939Z,101131.48
2019-03-19T01:04:49.510Z,101137.54
2019-03-19T01:07:20.915Z,101141.22
2019-03-19T01:09:51.435Z,101138.34
2019-03-19T01:12:21.973Z,101143.73
2019-03-19T01:14:53.407Z,101150.52
2019-03-19T01:17:23.674Z,101143.84
2019-03-19T01:19:54.153Z,101149.33
2019-03-19T01:22:24.423Z,101140.57
2019-03-19T01:24:55.839Z,101148.47
2019-03-19T01:27:26.387Z,101148.87
2019-03-19T01:29:56.899Z,101145.70
2019-03-19T01:32:27.443Z,101148.81
2019-03-19T01:34:58.874Z,101156.06
2019-03-19T01:37:29.441Z,101157.30
2019-03-19T01:39:59.939Z,101156.98
2019-03-19T01:42:30.491Z,101155.11
2019-03-19T01:45:03.614Z,101165.34
2019-03-19T01:47:33.994Z,101157.64
2019-03-19T01:50:07.965Z,101156.66
2019-03-19T01:52:38.438Z,101162.05
2019-03-19T01:55:15.978Z,101160.52
2019-03-19T01:57:47.485Z,101161.34
2019-03-19T02:00:19.344Z,101157.83
2019-03-19T02:02:56.969Z,101161.36
2019-03-19T02:05:27.345Z,101164.12
2019-03-19T02:07:58.806Z,101170.42
2019-03-19T02:10:30.258Z,101168.21
2019-03-19T02:13:00.786Z,101170.56
2019-03-19T02:15:32.237Z,101170.27
2019-03-19T02:18:03.685Z,101173.20
2019-03-19T02:20:35.144Z,101179.22
2019-03-19T02:23:06.602Z,101179.73
2019-03-19T02:25:37.118Z,101192.21
2019-03-19T02:28:08.577Z,101191.31
2019-03-19T02:30:39.113Z,101193.57
2019-03-19T02:33:09.631Z,101198.16
2019-03-19T02:35:39.873Z,101201.57
2019-03-19T02:38:11.320Z,101203.67
2019-03-19T02:40:42.755Z,101202.87
2019-03-19T02:43:13.308Z,101207.35
2019-03-19T02:45:43.818Z,101209.42
2019-03-19T02:48:15.283Z,101210.22
2019-03-19T02:50:45.806Z,101213.39
2019-03-19T02:53:16.346Z,101226.21
2019-03-19T02:55:47.791Z,101220.18
2019-03-19T02:58:19.244Z,101224.00
2019-03-19T03:00:50.684Z,101229.73
2019-03-19T03:03:22.155Z,101231.73
2019-03-19T03:05:53.583Z,101237.62
2019-03-19T03:08:23.860Z,101238.52
2019-03-19T03:10:55.253Z,101242.05
2019-03-19T03:13:26.726Z,101250.81
2019-03-19T03:15:57.234Z,101248.92
2019-03-19T03:18:28.710Z,101247.61
2019-03-19T03:20:59.223Z,101250.48
2019-03-19T03:23:29.768Z,101254.92
2019-03-19T03:26:00.280Z,101254.63
2019-03-19T03:28:33.277Z,101259.86
2019-03-19T03:31:03.821Z,101264.15
2019-03-19T03:33:35.259Z,101267.37
2019-03-19T03:36:05.783Z,101271.05
2019-03-19T03:38:37.239Z,101269.63
2019-03-19T03:41:07.750Z,101273.41
2019-03-19T03:43:38.297Z,101272.71
2019-03-19T03:46:11.277Z,101276.89
2019-03-19T03:48:41.800Z,101280.47
2019-03-19T03:51:12.335Z,101283.34
2019-03-19T03:53:42.860Z,101291.05
2019-03-19T03:56:13.390Z,101295.08
2019-03-19T03:58:43.634Z,101306.30
2019-03-19T04:01:15.065Z,101312.56
2019-03-19T04:03:46.577Z,101315.07
2019-03-19T04:06:17.970Z,101314.67
2019-03-19T04:08:48.293Z,101318.05
2019-03-19T04:11:18.727Z,101325.00
2019-03-19T04:13:49.258Z,101324.30
2019-03-19T04:16:19.778Z,101323.89
2019-03-19T04:18:50.306Z,101327.56
2019-03-19T04:21:21.775Z,101340.25
2019-03-19T04:23:52.283Z,101345.20
2019-03-19T04:26:22.545Z,101349.13
2019-03-19T04:28:53.963Z,101362.07
2019-03-19T04:31:25.425Z,101362.73
2019-03-19T04:33:56.862Z,101364.30
2019-03-19T04:36:27.405Z,101369.80
2019-03-19T04:38:59.155Z,101361.27
2019-03-19T04:41:29.706Z,101363.13
2019-03-19T04:44:01.139Z,101364.55
2019-03-19T04:46:31.679Z,101365.60
2019-03-19T04:49:03.419Z,101373.97
2019-03-19T04:51:33.961Z,101370.84
2019-03-19T04:54:04.493Z,101376.08
2019-03-19T04:56:37.177Z,101375.08
2019-03-19T04:59:07.692Z,101387.11
2019-03-19T05:01:38.239Z,101394.83
2019-03-19T05:04:10.900Z,101398.61
2019-03-19T05:06:42.392Z,101410.91
2019-03-19T05:09:12.883Z,101412.73
2019-03-19T05:11:43.438Z,101403.80
2019-03-19T05:14:14.866Z,101418.62
2019-03-19T05:16:47.254Z,101415.75
2019-03-19T05:19:18.689Z,101424.77
2019-03-19T05:21:50.170Z,101419.89
2019-03-19T05:24:20.698Z,101419.33
2019-03-19T05:26:51.200Z,101419.34
2019-03-19T05:29:23.573Z,101428.91
2019-03-19T05:31:54.106Z,101429.81
2019-03-19T05:34:24.648Z,101436.23
2019-03-19T05:36:55.161Z,101435.31
2019-03-19T05:39:25.694Z,101435.21
2019-03-19T05:41:57.141Z,101438.84
2019-03-19T05:44:27.672Z,101441.97
2019-03-19T05:47:00.206Z,101449.03
2019-03-19T05:49:31.820Z,101449.73
2019-03-19T05:52:02.327Z,101463.19
2019-03-19T05:54:32.866Z,101465.27
2019-03-19T05:57:04.319Z,101471.05
2019-03-19T05:59:34.843Z,101475.45
2019-03-19T06:02:05.378Z,101476.61
2019-03-19T06:04:35.920Z,101476.45
2019-03-19T06:07:06.457Z,101490.47
2019-03-19T06:09:39.526Z,101484.11
2019-03-19T06:12:10.883Z,101485.93
2019-03-19T06:14:41.400Z,101490.22
2019-03-19T06:17:11.945Z,101495.06
2019-03-19T06:19:42.476Z,101494.97
2019-03-19T06:22:13.091Z,101501.72
2019-03-19T06:24:43.827Z,101502.20
2019-03-19T06:27:15.299Z,101507.36
2019-03-19T06:29:45.810Z,101505.40
2019-03-19T06:32:16.345Z,101509.43
2019-03-19T06:34:46.878Z,101508.21
2019-03-19T06:37:17.428Z,101518.45
2019-03-19T06:39:47.928Z,101521.08
2019-03-19T06:42:18.462Z,101521.07
2019-03-19T06:44:48.994Z,101528.03
2019-03-19T06:47:19.518Z,101527.89
2019-03-19T06:49:50.044Z,101529.71
2019-03-19T06:52:20.574Z,101533.23
2019-03-19T06:54:51.106Z,101543.94
2019-03-19T06:57:21.635Z,101537.17
2019-03-19T06:59:53.087Z,101542.91
2019-03-19T07:02:23.614Z,101547.77
2019-03-19T07:04:54.140Z,101561.23
2019-03-19T07:07:25.595Z,101549.73
2019-03-19T07:09:56.131Z,101560.45
2019-03-19T07:12:26.660Z,101554.86
2019-03-19T07:14:57.203Z,101558.09
2019-03-19T07:17:32.171Z,101552.44
2019-03-19T07:20:08.925Z,101553.81
2019-03-19T07:22:43.095Z,101553.03
2019-03-19T07:25:13.445Z,101561.90
2019-03-19T07:27:44.891Z,101558.77
2019-03-19T07:30:20.112Z,101557.44
2019-03-19T07:32:50.572Z,101570.64
2019-03-19T07:35:21.104Z,101574.61
2019-03-19T07:37:52.869Z,101572.44
2019-03-19T07:40:23.414Z,101570.73
2019-03-19T07:42:53.918Z,101577.00
2019-03-19T07:45:26.111Z,101579.45
2019-03-19T07:47:56.557Z,101576.25
2019-03-19T07:50:27.029Z,101575.84
2019-03-19T07:52:57.612Z,101583.57
2019-03-19T07:55:28.090Z,101580.55
2019-03-19T07:57:58.641Z,101586.56
2019-03-19T08:00:29.192Z,101593.21
2019-03-19T08:02:59.705Z,101591.36
2019-03-19T08:05:33.409Z,101592.09
2019-03-19T08:08:03.877Z,101606.19
2019-03-19T08:10:35.920Z,101607.26
2019-03-19T08:13:06.291Z,101612.09
2019-03-19T08:15:36.656Z,101620.02
2019-03-19T08:18:08.428Z,101620.64
2019-03-19T08:20:40.159Z,101623.27
2019-03-19T08:23:10.725Z,101628.19
2019-03-19T08:25:42.752Z,101634.15
2019-03-19T08:28:13.303Z,101642.22
2019-03-19T08:30:43.815Z,101652.74
2019-03-19T08:33:14.377Z,101655.48
2019-03-19T08:35:46.742Z,101664.05
2019-03-19T08:38:17.295Z,101661.66
2019-03-19T08:40:50.977Z,101668.36
2019-03-19T08:43:21.172Z,101666.81
2019-03-19T08:45:52.525Z,101674.09
2019-03-19T08:48:23.056Z,101676.22
2019-03-19T08:50:53.602Z,101677.41
2019-03-19T08:53:24.097Z,101678.08
2019-03-19T08:55:54.957Z,101685.83
2019-03-19T08:58:25.522Z,101684.78
2019-03-19T09:00:57.236Z,101692.72
2019-03-19T09:03:27.766Z,101686.98
2019-03-19T09:05:58.300Z,101696.66
2019-03-19T09:08:28.844Z,101703.63
2019-03-19T09:11:00.276Z,101704.05
2019-03-19T09:13:30.826Z,101707.16
2019-03-19T09:16:02.951Z,101707.23
2019-03-19T09:18:34.954Z,101705.77
2019-03-19T09:21:05.463Z,101717.45
2019-03-19T09:23:36.918Z,101713.10
2019-03-19T09:26:08.369Z,101720.34
2019-03-19T09:28:40.529Z,101722.57
2019-03-19T09:31:10.983Z,101724.55
2019-03-19T09:33:41.521Z,101723.05
2019-03-19T09:36:13.287Z,101723.68
2019-03-19T09:38:43.778Z,101727.55
2019-03-19T09:41:14.298Z,101728.64
2019-03-19T09:43:44.871Z,101722.80
2019-03-19T09:46:15.354Z,101720.00
2019-03-19T09:48:47.697Z,101718.83
2019-03-19T09:51:17.959Z,101727.36
2019-03-19T09:53:48.498Z,101729.82
2019-03-19T09:56:19.979Z,101736.73
2019-03-19T09:58:50.528Z,101730.36
2019-03-19T10:01:21.024Z,101730.63
2019-03-19T10:03:51.626Z,101735.27
2019-03-19T10:06:22.081Z,101739.55
2019-03-19T10:08:52.626Z,101747.31
2019-03-19T10:11:24.352Z,101746.09
2019-03-19T10:13:54.920Z,101745.63
2019-03-19T10:16:25.267Z,101748.00
2019-03-19T10:18:55.647Z,101748.19
2019-03-19T10:21:26.178Z,101745.70
2019-03-19T10:23:56.734Z,101739.52
2019-03-19T10:26:29.055Z,101750.83
2019-03-19T10:28:59.613Z,101750.52
2019-03-19T10:31:30.141Z,101756.72
2019-03-19T10:34:00.691Z,101761.23
2019-03-19T10:36:33.349Z,101757.45
2019-03-19T10:39:06.187Z,101755.87
2019-03-19T10:41:36.533Z,101754.44
2019-03-19T10:44:07.063Z,101759.83
2019-03-19T10:46:39.583Z,101754.55
2019-03-19T10:49:10.884Z,101767.45
2019-03-19T10:51:43.261Z,101766.94
2019-03-19T10:54:13.787Z,101757.09
2019-03-19T10:56:45.236Z,101768.36
2019-03-19T10:59:21.111Z,101777.50
2019-03-19T11:01:54.595Z,101776.36
2019-03-19T11:04:26.038Z,101771.09
2019-03-19T11:06:56.575Z,101776.83
2019-03-19T11:09:27.106Z,101771.81
2019-03-19T11:11:57.657Z,101768.67
2019-03-19T11:14:28.175Z,101770.47
2019-03-19T11:16:58.516Z,101777.69
2019-03-19T11:19:28.928Z,101775.19
2019-03-19T11:21:59.466Z,101775.64
2019-03-19T11:24:30.030Z,101772.74
2019-03-19T11:27:00.578Z,101774.41
2019-03-19T11:29:33.709Z,101778.05
2019-03-19T11:32:05.599Z,101785.38
2019-03-19T11:34:38.584Z,101787.00
2019-03-19T11:37:09.088Z,101786.97
2019-03-19T11:39:39.617Z,101788.06
2019-03-19T11:42:11.163Z,101794.30
2019-03-19T11:44:42.894Z,101800.40
2019-03-19T11:47:14.588Z,101794.45
2019-03-19T11:49:46.051Z,101803.84
2019-03-19T11:52:16.565Z,101797.52
2019-03-19T11:54:47.106Z,101799.90
2019-03-19T11:57:17.655Z,101789.14
2019-03-19T11:59:48.150Z,101792.45
2019-03-19T12:02:25.803Z,101797.56
2019-03-19T12:04:50.747Z,101795.76
2019-03-19T12:07:22.213Z,101798.95
2019-03-19T12:09:52.735Z,101793.78
2019-03-19T12:12:23.264Z,101791.11
2019-03-19T12:14:54.709Z,101788.88
2019-03-19T12:17:25.050Z,101792.08
2019-03-19T12:19:55.462Z,101800.77
2019-03-19T12:22:26.007Z,101789.39
2019-03-19T12:24:57.439Z,101792.58
2019-03-19T12:27:28.902Z,101787.80
2019-03-19T12:29:59.424Z,101777.59
2019-03-19T12:32:29.950Z,101775.41
2019-03-19T12:35:01.728Z,101783.04
2019-03-19T12:37:35.407Z,101788.55
2019-03-19T12:40:13.059Z,101789.80
2019-03-19T12:42:46.282Z,101780.17
2019-03-19T12:45:18.075Z,101784.82
2019-03-19T12:47:48.806Z,101785.50
2019-03-19T12:50:20.685Z,101777.47
2019-03-19T12:52:52.335Z,101787.66
2019-03-19T12:55:22.871Z,101787.84
2019-03-19T12:57:53.388Z,101793.90
2019-03-19T13:00:34.161Z,101799.53
2019-03-19T13:03:02.106Z,101799.39
2019-03-19T13:05:32.652Z,101793.41
2019-03-19T13:08:03.187Z,101788.52
2019-03-19T13:10:33.700Z,101783.88
2019-03-19T13:13:04.713Z,101797.14
2019-03-19T13:15:36.599Z,101801.11
2019-03-19T13:18:07.182Z,101798.86
2019-03-19T13:20:37.657Z,101800.63
2019-03-19T13:23:09.118Z,101803.70
2019-03-19T13:25:40.560Z,101810.14
2019-03-19T13:28:12.021Z,101814.73
2019-03-19T13:30:45.254Z,101815.42
2019-03-19T13:33:14.628Z,101821.21
2019-03-19T13:35:45.149Z,101823.10
2019-03-19T13:38:16.600Z,101830.62
2019-03-19T13:40:47.116Z,101827.44
2019-03-19T13:43:17.649Z,101832.83
2019-03-19T13:45:49.097Z,101841.78
2019-03-19T13:48:19.641Z,101836.35
2019-03-19T13:50:50.157Z,101841.44
2019-03-19T13:53:20.710Z,101838.03
2019-03-19T13:55:51.683Z,101839.26
2019-03-19T13:58:22.059Z,101836.36
2019-03-19T14:00:55.784Z,101835.33
2019-03-19T14:03:24.651Z,101839.83
2019-03-19T14:05:55.189Z,101838.89
2019-03-19T14:08:25.706Z,101847.11
2019-03-19T14:10:57.466Z,101846.41
2019-03-19T14:13:28.001Z,101849.94
2019-03-19T14:15:58.533Z,101837.97
2019-03-19T14:18:29.053Z,101842.02
2019-03-19T14:20:59.578Z,101842.50
2019-03-19T14:23:30.120Z,101838.00
2019-03-19T14:26:00.646Z,101846.27
2019-03-19T14:28:31.187Z,101845.70
2019-03-19T14:31:08.629Z,101847.09
2019-03-19T14:33:35.036Z,101848.32
2019-03-19T14:36:05.695Z,101847.23
2019-03-19T14:38:46.516Z,101853.80
2019-03-19T14:41:08.578Z,101848.23
2019-03-19T14:43:40.194Z,101842.06
2019-03-19T14:46:10.724Z,101847.45
2019-03-19T14:48:41.260Z,101842.45
2019-03-19T14:51:11.785Z,101848.16
2019-03-19T14:53:42.323Z,101844.30
2019-03-19T14:56:12.847Z,101852.03
2019-03-19T14:58:44.351Z,101846.02
2019-03-19T15:01:19.649Z,101852.91
2019-03-19T15:03:51.637Z,101857.58
2019-03-19T15:06:23.255Z,101852.11
2019-03-19T15:09:05.087Z,101851.13
2019-03-19T15:11:39.270Z,101857.48
2019-03-19T15:14:18.089Z,101857.48
2019-03-19T15:17:05.053Z,101862.31
2019-03-19T15:19:33.070Z,101860.80
2019-03-19T15:22:03.615Z,101856.54
2019-03-19T15:24:35.375Z,101865.78
2019-03-19T15:27:11.144Z,101866.69
2019-03-19T15:29:48.402Z,101871.45
2019-03-19T15:32:19.852Z,101874.39
2019-03-19T15:34:50.381Z,101879.27
2019-03-19T15:37:20.914Z,101883.03
2019-03-19T15:39:51.439Z,101896.94
2019-03-19T15:42:24.280Z,101894.13
2019-03-19T15:44:56.231Z,101896.66
2019-03-19T15:47:26.909Z,101896.93
2019-03-19T15:50:02.515Z,101910.12
2019-03-19T15:52:33.927Z,101908.71
2019-03-19T15:55:09.615Z,101919.53
2019-03-19T15:57:41.965Z,101916.83
2019-03-19T16:00:19.104Z,101910.16
2019-03-19T16:02:54.257Z,101925.75
2019-03-19T16:05:27.346Z,101931.25
2019-03-19T16:07:59.234Z,101929.78
2019-03-19T16:10:29.764Z,101928.45
2019-03-19T16:13:04.480Z,101931.68
2019-03-19T16:15:35.332Z,101933.20
2019-03-19T16:18:05.689Z,101933.30
2019-03-19T16:20:37.683Z,101943.36
2019-03-19T16:23:14.144Z,101939.63
2019-03-19T16:25:47.619Z,101944.64
2019-03-19T16:28:21.917Z,101951.72
2019-03-19T16:30:54.272Z,101956.95
2019-03-19T16:33:29.130Z,101963.17
2019-03-19T16:36:01.284Z,101958.17
2019-03-19T16:38:33.549Z,101959.13
2019-03-19T16:41:05.408Z,101969.41
2019-03-19T16:43:36.184Z,101976.80
2019-03-19T16:46:06.779Z,101981.14
2019-03-19T16:48:38.785Z,101978.06
2019-03-19T16:51:09.282Z,101988.84
2019-03-19T16:53:39.948Z,101987.42
2019-03-19T16:56:10.320Z,101990.57
2019-03-19T16:58:44.120Z,102001.95
2019-03-19T17:01:22.141Z,102002.35
2019-03-19T17:04:07.111Z,102007.11
2019-03-19T17:06:46.796Z,102015.45
2019-03-19T17:09:24.173Z,102011.10
2019-03-19T17:12:01.983Z,102018.34
2019-03-19T17:14:41.412Z,102006.94
2019-03-19T17:17:15.466Z,102017.75
2019-03-19T17:19:50.084Z,102027.46
2019-03-19T17:22:20.479Z,102029.75
2019-03-19T17:24:51.251Z,102029.34
2019-03-19T17:27:23.475Z,102029.12
2019-03-19T17:29:53.920Z,102038.05
2019-03-19T17:32:26.012Z,102041.77
2019-03-19T17:34:56.469Z,102048.86
2019-03-19T17:37:30.072Z,102049.80
2019-03-19T17:40:01.822Z,102048.62
2019-03-19T17:42:42.083Z,102055.68
2019-03-19T17:45:15.997Z,102055.05
2019-03-19T17:47:49.806Z,102053.31
2019-03-19T17:50:40.279Z,102061.59
2019-03-19T17:53:17.489Z,102064.50
2019-03-19T17:55:48.015Z,102064.36
2019-03-19T17:58:18.555Z,102071.86
2019-03-19T18:00:50.717Z,102081.02
2019-03-19T18:03:22.569Z,102083.90
2019-03-19T18:05:52.982Z,102087.57
2019-03-19T18:08:24.686Z,102097.41
2019-03-19T18:10:55.240Z,102093.67
2019-03-19T18:13:27.374Z,102099.69
2019-03-19T18:15:59.057Z,102102.02
2019-03-19T18:18:30.787Z,102099.88
2019-03-19T18:21:02.964Z,102105.40
2019-03-19T18:23:33.390Z,102106.03
2019-03-19T18:26:03.907Z,102109.17
2019-03-19T18:28:34.477Z,102114.41
2019-03-19T18:31:05.005Z,102110.08
2019-03-19T18:33:35.888Z,102110.36
2019-03-19T18:36:07.264Z,102118.07
2019-03-19T18:38:40.544Z,102119.25
2019-03-19T18:41:11.099Z,102115.60
2019-03-19T18:43:45.507Z,102125.54
2019-03-19T18:46:16.161Z,102123.31
2019-03-19T18:48:46.724Z,102129.08
2019-03-19T18:51:17.204Z,102124.23
2019-03-19T18:53:49.832Z,102129.19
2019-03-19T18:56:22.570Z,102138.13
2019-03-19T18:58:54.532Z,102134.82
2019-03-19T19:01:27.726Z,102138.59
2019-03-19T19:03:59.983Z,102143.30
2019-03-19T19:06:31.739Z,102142.27
2019-03-19T19:09:05.131Z,102151.55
2019-03-19T19:11:35.564Z,102156.33
2019-03-19T19:14:06.698Z,102157.72
2019-03-19T19:16:39.706Z,102164.48
2019-03-19T19:19:12.342Z,102165.80
2019-03-19T19:21:42.901Z,102174.84
2019-03-19T19:24:30.113Z,102170.33
2019-03-19T19:27:03.637Z,102172.65
2019-03-19T19:29:36.153Z,102172.42
2019-03-19T19:32:06.711Z,102171.86
2019-03-19T19:34:37.067Z,102180.80
2019-03-19T19:37:07.592Z,102183.42
2019-03-19T19:39:40.269Z,102191.61
2019-03-19T19:42:12.398Z,102195.11
2019-03-19T19:44:42.864Z,102196.22
2019-03-19T19:47:13.495Z,102200.67
2019-03-19T19:49:45.149Z,102196.72
2019-03-19T19:52:19.430Z,102201.55
2019-03-19T19:54:50.341Z,102193.20
2019-03-19T19:57:23.926Z,102201.45
2019-03-19T19:59:57.703Z,102200.91
2019-03-19T20:02:28.297Z,102195.60
2019-03-19T20:05:02.879Z,102193.63
2019-03-19T20:07:30.974Z,102206.42
2019-03-19T20:10:01.365Z,102205.61
2019-03-19T20:12:35.387Z,102209.70
2019-03-19T20:15:08.632Z,102202.73
2019-03-19T20:17:44.034Z,102209.31
2019-03-19T20:20:30.792Z,102202.69
2019-03-19T20:23:02.914Z,102227.64
2019-03-19T20:25:33.447Z,102233.41
2019-03-19T20:28:07.035Z,102237.48
2019-03-19T20:30:37.582Z,102235.49
2019-03-19T20:33:08.082Z,102231.72
2019-03-19T20:35:38.615Z,102229.80
2019-03-19T20:38:10.683Z,102236.24
2019-03-19T20:40:41.224Z,102241.78
2019-03-19T20:43:11.745Z,102248.84
2019-03-19T20:45:43.203Z,102253.37
2019-03-19T20:48:13.749Z,102258.03
2019-03-19T20:50:44.253Z,102262.12
2019-03-19T20:53:16.312Z,102256.58
2019-03-19T20:55:46.900Z,102262.12
2019-03-19T20:58:17.373Z,102269.53
2019-03-19T21:00:48.982Z,102265.07
2019-03-19T21:03:21.920Z,102264.15
2019-03-19T21:05:54.343Z,102267.89
2019-03-19T21:08:38.157Z,102269.65
2019-03-19T21:11:12.891Z,102278.85
2019-03-19T21:13:46.339Z,102273.30
2019-03-19T21:16:16.884Z,102277.43
2019-03-19T21:18:47.439Z,102277.43
2019-03-19T21:21:19.539Z,102277.81
2019-03-19T21:23:50.685Z,102280.61
2019-03-19T21:26:21.182Z,102280.61
2019-03-19T21:28:53.978Z,102286.41
2019-03-19T21:31:26.638Z,102286.41
2019-03-19T21:34:04.051Z,102285.92
2019-03-19T21:36:34.688Z,102287.56
2019-03-19T21:39:07.411Z,102260.55
2019-03-19T21:41:42.060Z,102292.11
2019-03-19T21:44:15.613Z,102297.77
2019-03-19T21:46:48.206Z,102292.08
2019-03-19T21:49:18.660Z,102292.08
2019-03-19T21:51:50.618Z,102289.83
2019-03-19T21:54:22.061Z,102300.50
2019-03-19T21:56:56.848Z,102300.94
2019-03-19T21:59:36.657Z,102304.95
2019-03-19T22:02:16.047Z,102309.30
2019-03-19T22:04:46.921Z,102307.46
2019-03-19T22:07:22.623Z,102302.83
2019-03-19T22:09:57.768Z,102299.30
2019-03-19T22:12:31.676Z,102307.89
2019-03-19T22:15:16.426Z,102309.98
2019-03-19T22:17:47.147Z,102309.64
2019-03-19T22:20:22.546Z,102309.64
2019-03-19T22:22:53.591Z,102294.81
2019-03-19T22:25:25.357Z,102312.06
2019-03-19T22:27:55.697Z,102311.14
2019-03-19T22:30:26.535Z,102308.81
2019-03-19T22:32:57.261Z,102312.16
2019-03-19T22:35:29.412Z,102313.16
2019-03-19T22:37:59.887Z,102299.30
2019-03-19T22:40:31.358Z,102323.33
2019-03-19T22:43:01.868Z,102299.18
2019-03-19T22:45:32.268Z,102299.18
2019-03-19T22:48:02.804Z,102327.98
2019-03-19T22:50:33.175Z,102327.98
2019-03-19T22:53:03.557Z,102332.97
2019-03-19T22:55:33.925Z,102332.97
2019-03-19T22:58:05.637Z,102315.77
2019-03-19T23:00:37.826Z,102339.28
2019-03-19T23:03:10.264Z,102336.22
2019-03-19T23:05:40.654Z,102328.97
2019-03-19T23:08:11.018Z,102332.49
2019-03-19T23:10:41.419Z,102315.59
2019-03-19T23:13:12.130Z,102315.59
2019-03-19T23:15:42.488Z,102335.79
2019-03-19T23:18:13.023Z,102335.17
2019-03-19T23:20:43.560Z,102343.34
2019-03-19T23:23:13.936Z,102343.84
2019-03-19T23:25:45.586Z,102343.84
2019-03-19T23:28:15.989Z,102343.84
2019-03-19T23:30:46.337Z,102338.86
2019-03-19T23:33:16.672Z,102350.93
2019-03-19T23:35:47.010Z,102347.70
2019-03-19T23:38:17.600Z,102349.92
2019-03-19T23:40:47.934Z,102349.73
2019-03-19T23:43:19.634Z,102349.77
2019-03-19T23:45:49.966Z,102352.95
2019-03-19T23:48:20.293Z,102350.55
2019-03-19T23:50:50.727Z,102355.22
2019-03-19T23:53:21.065Z,102353.58
2019-03-19T23:55:51.807Z,102354.53
2019-03-19T23:58:22.514Z,102360.86
